createdAt,value
2019-01-09T18:48:16.470Z,18.60
2019-01-09T18:51:17.210Z,18.60
2019-01-09T18:53:47.280Z,18.60
2019-01-09T18:56:15.684Z,18.60
2019-01-09T18:58:45.339Z,18.60
2019-01-09T19:01:14.337Z,18.70
2019-01-09T19:03:42.978Z,18.70
2019-01-09T19:06:11.413Z,18.60
2019-01-09T19:08:39.872Z,18.70
2019-01-09T19:11:08.591Z,18.70
2019-01-09T19:13:36.914Z,18.60
2019-01-09T19:16:06.149Z,18.60
2019-01-09T19:18:34.856Z,18.60
2019-01-09T19:21:03.868Z,18.60
2019-01-09T19:23:32.627Z,18.60
2019-01-09T19:26:02.050Z,18.60
2019-01-09T19:28:31.017Z,18.60
2019-01-09T19:30:59.589Z,18.60
2019-01-09T19:33:28.380Z,18.60
2019-01-09T19:35:56.805Z,18.60
2019-01-09T19:38:25.947Z,18.60
2019-01-09T19:40:54.527Z,18.60
2019-01-09T19:43:22.982Z,18.60
2019-01-09T19:45:51.405Z,18.60
2019-01-09T19:48:19.893Z,18.60
2019-01-09T19:50:48.314Z,18.60
2019-01-09T19:53:18.483Z,18.60
2019-01-09T19:55:46.938Z,18.60
2019-01-09T19:58:15.346Z,18.60
2019-01-09T20:00:43.776Z,18.60
2019-01-09T20:03:12.697Z,18.60
2019-01-09T20:05:42.766Z,18.60
2019-01-09T20:08:11.674Z,18.50
2019-01-09T20:10:40.184Z,18.60
2019-01-09T20:13:08.775Z,18.60
2019-01-09T20:20:50.553Z,18.70
2019-01-09T20:23:18.473Z,20.50
2019-01-09T20:27:14.515Z,20.50
2019-01-09T20:30:34.631Z,20.40
2019-01-09T20:33:03.049Z,20.40
2019-01-09T20:35:31.551Z,20.40
2019-01-09T20:38:00.101Z,20.40
2019-01-09T20:42:57.372Z,20.10
2019-01-09T20:45:26.796Z,18.40
2019-01-09T20:47:56.014Z,17.80
2019-01-09T20:50:26.196Z,17.70
2019-01-09T20:52:58.431Z,17.60
2019-01-09T20:55:29.050Z,17.60
2019-01-09T20:57:58.308Z,17.60
2019-01-09T21:00:28.707Z,17.60
2019-01-09T21:03:00.239Z,17.60
2019-01-09T21:05:38.007Z,17.60
2019-01-09T21:08:07.632Z,17.60
2019-01-09T21:10:38.474Z,17.60
2019-01-09T21:13:07.874Z,17.60
2019-01-09T21:15:37.377Z,17.60
2019-01-09T21:18:06.998Z,17.60
2019-01-09T21:20:36.418Z,17.60
2019-01-09T21:23:05.859Z,17.60
2019-01-09T21:25:36.741Z,17.60
2019-01-09T21:28:06.120Z,17.60
2019-01-09T21:30:35.555Z,17.60
2019-01-09T21:33:05.002Z,17.60
2019-01-09T21:35:34.803Z,17.60
2019-01-09T21:38:04.372Z,17.50
2019-01-09T21:40:34.846Z,17.50
2019-01-09T21:43:04.265Z,17.60
2019-01-09T21:45:33.737Z,17.60
2019-01-09T21:48:04.534Z,17.60
2019-01-09T21:50:33.987Z,17.60
2019-01-09T21:53:03.321Z,17.60
2019-01-09T21:55:32.649Z,17.60
2019-01-09T21:58:03.235Z,17.60
2019-01-09T22:00:32.487Z,17.60
2019-01-09T22:03:01.758Z,17.60
2019-01-09T22:05:31.159Z,17.60
2019-01-09T22:08:00.396Z,17.60
2019-01-09T22:10:32.290Z,17.60
2019-01-09T22:13:01.585Z,17.60
2019-01-09T22:15:31.054Z,17.60
2019-01-09T22:18:00.321Z,17.60
2019-01-09T22:20:29.561Z,17.60
2019-01-09T22:22:58.838Z,17.60
2019-01-09T22:25:28.134Z,17.60
2019-01-09T22:27:57.674Z,17.60
2019-01-09T22:30:28.022Z,17.60
2019-01-09T22:34:40.659Z,17.60
2019-01-09T22:37:09.915Z,17.70
2019-01-09T22:39:39.222Z,17.70
2019-01-09T22:42:12.085Z,17.70
2019-01-09T22:44:39.445Z,17.80
2019-01-09T22:47:08.924Z,17.80
2019-01-09T22:49:38.813Z,17.70
2019-01-09T22:52:08.064Z,17.70
2019-01-09T22:54:39.015Z,17.70
2019-01-09T22:57:08.447Z,17.80
2019-01-09T22:59:37.754Z,17.80
2019-01-09T23:02:07.188Z,17.80
2019-01-09T23:04:36.618Z,17.80
2019-01-09T23:07:06.516Z,17.80
2019-01-09T23:09:35.760Z,17.80
2019-01-09T23:12:05.173Z,17.80
2019-01-09T23:14:35.302Z,17.80
2019-01-09T23:17:04.627Z,17.80
2019-01-09T23:19:34.244Z,17.80
2019-01-09T23:22:03.483Z,17.80
2019-01-09T23:24:32.807Z,17.80
2019-01-09T23:27:02.329Z,17.80
2019-01-09T23:29:31.552Z,17.80
2019-01-09T23:32:01.024Z,17.80
2019-01-09T23:34:30.287Z,17.80
2019-01-09T23:36:59.566Z,17.80
2019-01-09T23:39:29.295Z,17.80
2019-01-09T23:41:58.513Z,17.80
2019-01-09T23:44:27.866Z,17.80
2019-01-09T23:46:57.134Z,17.80
2019-01-09T23:49:26.435Z,17.80
2019-01-09T23:51:55.860Z,17.80
2019-01-09T23:54:25.737Z,17.80
2019-01-09T23:56:55.289Z,17.80
2019-01-09T23:59:24.475Z,17.80
